Time;durP1;ratioP1;P1;durP2;ratioP2;P2;SDS_P1;SDS_P2;PMS_P1;PMS_P2;Temp;Humidity;BMP_temperature;BMP_pressure;BME280_temperature;BME280_humidity;BME280_pressure;Samples;Min_cycle;Max_cycle;Signal;HPM_P1;HPM_P2
2022/01/17 00:00:16;;;;;;;;;9.75;9.75;;;;;19.56;33.56;102906.78;4994422;28;45944;-55
2022/01/17 00:02:42;;;;;;;;;12.25;8.00;;;;;19.56;33.24;102905.94;4994641;28;45416;-56
2022/01/17 00:05:09;;;;;;;;;14.25;10.75;;;;;19.56;33.41;102917.31;4994465;28;46701;-55
2022/01/17 00:07:35;;;;;;;;;11.75;10.25;;;;;19.55;33.53;102910.31;4994065;28;45755;-55
2022/01/17 00:10:00;;;;;;;;;10.50;10.00;;;;;19.55;33.39;102914.72;4994397;28;45343;-51
2022/01/17 00:12:27;;;;;;;;;11.75;10.00;;;;;19.53;33.55;102917.34;4994678;28;45564;-54
2022/01/17 00:14:55;;;;;;;;;11.50;11.50;;;;;19.54;33.57;102920.88;4994182;28;46546;-53
2022/01/17 00:19:52;;;;;;;;;13.75;10.75;;;;;19.52;33.69;102920.03;4994107;28;45314;-55
2022/01/17 00:22:20;;;;;;;;;14.00;12.75;;;;;19.52;33.66;102920.88;4994181;28;45585;-57
2022/01/17 00:24:46;;;;;;;;;11.25;8.00;;;;;19.52;33.47;102920.88;4992772;28;47169;-54
2022/01/17 00:27:12;;;;;;;;;10.00;9.00;;;;;19.49;33.63;102913.06;4994067;27;45301;-49
2022/01/17 00:29:38;;;;;;;;;10.00;9.00;;;;;19.51;33.70;102918.28;4994544;28;45440;-57
2022/01/17 00:32:04;;;;;;;;;11.75;9.50;;;;;19.50;33.44;102914.81;4994204;28;45186;-54
2022/01/17 00:34:29;;;;;;;;;12.50;9.75;;;;;19.51;33.84;102911.28;4993853;28;46370;-57
2022/01/17 00:36:55;;;;;;;;;14.25;11.25;;;;;19.47;33.48;102910.44;4994009;28;45390;-56
2022/01/17 00:39:20;;;;;;;;;9.75;9.00;;;;;19.48;33.56;102906.06;4993852;28;45308;-57
2022/01/17 00:41:46;;;;;;;;;11.00;8.25;;;;;19.47;33.83;102910.44;4976528;28;45332;-54
2022/01/17 00:44:11;;;;;;;;;10.00;8.50;;;;;19.47;33.78;102910.44;4994144;28;45471;-56
2022/01/17 00:46:38;;;;;;;;;11.75;11.75;;;;;19.50;33.67;102916.56;4993602;28;45397;-58
2022/01/17 00:49:03;;;;;;;;;10.75;8.00;;;;;19.51;34.08;102907.78;4993927;28;45351;-58
2022/01/17 00:51:29;;;;;;;;;12.25;12.25;;;;;19.53;33.84;102908.63;4994023;28;45579;-55
2022/01/17 00:53:55;;;;;;;;;11.25;9.50;;;;;19.58;34.22;102918.16;4993647;28;46379;-58
2022/01/17 00:56:21;;;;;;;;;10.25;9.00;;;;;19.62;34.11;102911.94;4993590;28;45401;-58
2022/01/17 00:58:48;;;;;;;;;11.25;8.25;;;;;19.68;33.51;102915.34;4993794;28;45382;-56
2022/01/17 01:01:13;;;;;;;;;9.00;9.00;;;;;19.73;33.98;102913.53;4993798;27;45531;-48
2022/01/17 01:03:39;;;;;;;;;9.50;8.50;;;;;19.78;34.30;102911.66;4993830;28;46152;-52
2022/01/17 01:06:05;;;;;;;;;8.50;7.50;;;;;19.84;33.51;102915.94;4993523;28;45387;-57
2022/01/17 01:08:30;;;;;;;;;11.00;11.00;;;;;19.88;33.57;102909.75;4993574;28;45249;-56
2022/01/17 01:10:56;;;;;;;;;12.25;10.00;;;;;19.92;33.45;102912.28;4993766;28;45173;-56
2022/01/17 01:13:23;;;;;;;;;10.00;9.00;;;;;19.95;33.64;102905.25;4993326;28;46402;-55
2022/01/17 01:21:25;;;;;;;;;6.75;6.75;;;;;20.04;33.67;102905.91;4993487;28;45401;-55
2022/01/17 01:29:16;;;;;;;;;8.00;8.00;;;;;20.10;33.51;102909.31;4993422;28;45174;-54
2022/01/17 01:34:44;;;;;;;;;12.00;9.50;;;;;20.12;33.45;102902.25;5010079;28;46547;-52
2022/01/17 01:37:11;;;;;;;;;8.75;8.75;;;;;20.14;33.23;102908.34;4993190;28;45325;-56
2022/01/17 01:39:37;;;;;;;;;11.00;9.25;;;;;20.14;33.23;102903.06;4993210;28;45442;-55
2022/01/17 01:42:04;;;;;;;;;8.75;8.75;;;;;20.15;33.39;102904.81;4993195;28;45543;-57
2022/01/17 01:44:30;;;;;;;;;11.00;9.25;;;;;20.15;33.22;102905.69;4992779;27;46360;-57
2022/01/17 01:46:57;;;;;;;;;10.25;10.25;;;;;20.16;33.65;102907.44;4992790;28;45827;-57
2022/01/17 01:49:24;;;;;;;;;10.25;10.25;;;;;20.15;33.52;102904.81;4992995;28;45452;-56
2022/01/17 01:51:49;;;;;;;;;9.00;8.50;;;;;20.15;33.14;102916.22;4995646;28;45531;-56
2022/01/17 01:54:16;;;;;;;;;7.75;7.75;;;;;20.16;33.78;102920.59;4978557;28;46257;-55
2022/01/17 01:56:44;;;;;;;;;8.00;7.75;;;;;20.16;33.26;102917.97;4995770;28;45453;-57
2022/01/17 01:59:11;;;;;;;;;8.25;8.00;;;;;20.17;33.68;102924.06;4996075;28;45193;-56
2022/01/17 02:01:36;;;;;;;;;9.50;8.00;;;;;20.16;33.48;102922.34;4996156;27;45599;-52
2022/01/17 02:04:03;;;;;;;;;10.00;8.00;;;;;20.16;33.53;102924.97;4978186;28;46554;-54
2022/01/17 02:06:29;;;;;;;;;9.25;8.00;;;;;20.13;33.70;102923.28;4995747;27;45426;-55
2022/01/17 02:08:54;;;;;;;;;7.75;7.75;;;;;20.16;33.35;102927.59;4995765;27;45428;-58
2022/01/17 02:11:20;;;;;;;;;11.75;9.75;;;;;20.15;33.75;102923.25;4995932;28;45434;-57
2022/01/17 02:13:46;;;;;;;;;9.00;8.00;;;;;20.14;33.76;102927.66;4978304;28;48210;-56
2022/01/17 02:16:14;;;;;;;;;8.25;6.00;;;;;20.13;33.36;102925.91;4995832;27;45965;-56
2022/01/17 02:18:45;;;;;;;;;11.50;9.00;;;;;20.13;33.25;102925.03;4978037;28;45242;-57
2022/01/17 02:23:38;;;;;;;;;11.75;9.50;;;;;20.12;33.79;102925.97;4995608;28;45358;-56
2022/01/17 02:26:04;;;;;;;;;13.75;9.25;;;;;20.11;33.57;102919.81;4995438;28;45264;-57
2022/01/17 02:28:31;;;;;;;;;10.50;10.25;;;;;20.10;33.38;102914.59;4995628;28;45235;-57
2022/01/17 02:30:56;;;;;;;;;9.00;9.00;;;;;20.10;33.45;102918.06;4995907;28;45285;-58
2022/01/17 02:33:22;;;;;;;;;9.50;9.00;;;;;20.08;33.91;102917.22;4995208;28;47866;-58
2022/01/17 02:35:48;;;;;;;;;12.50;10.50;;;;;20.07;33.80;102915.50;4995625;28;45406;-54
2022/01/17 02:38:13;;;;;;;;;7.00;7.00;;;;;20.07;33.92;102907.59;4995951;28;45295;-57
2022/01/17 02:40:38;;;;;;;;;11.50;9.00;;;;;20.07;33.49;102907.59;4995684;28;45572;-54
2022/01/17 02:43:06;;;;;;;;;11.50;7.50;;;;;20.04;33.51;102905.91;4995247;27;46479;-58
2022/01/17 02:48:04;;;;;;;;;12.25;9.75;;;;;20.03;33.88;102906.78;4995408;28;45295;-55
2022/01/17 02:50:29;;;;;;;;;9.75;8.00;;;;;20.03;33.54;102901.53;4978071;28;45418;-58
2022/01/17 02:53:04;;;;;;;;;9.00;8.25;;;;;20.02;34.13;102905.06;4995098;28;46337;-59
2022/01/17 02:55:29;;;;;;;;;10.50;9.25;;;;;20.01;34.07;102900.69;4995307;28;45429;-54
2022/01/17 02:57:55;;;;;;;;;11.50;9.75;;;;;19.99;34.04;102899.88;4995265;27;45329;-58
2022/01/17 03:00:21;;;;;;;;;10.00;8.00;;;;;19.99;33.64;102901.63;4995506;28;45374;-57
2022/01/17 03:02:48;;;;;;;;;13.00;8.50;;;;;19.98;33.90;102913.94;4994003;27;46607;-55
2022/01/17 03:05:16;;;;;;;;;11.50;9.50;;;;;19.97;33.80;102906.94;4995346;28;45334;-57
2022/01/17 03:07:42;;;;;;;;;8.00;8.00;;;;;19.96;34.08;102913.09;4977603;28;45312;-53
2022/01/17 03:10:14;;;;;;;;;8.25;8.00;;;;;19.95;33.76;102921.88;4995268;28;45559;-51
2022/01/17 03:12:40;;;;;;;;;10.00;9.00;;;;;19.93;33.76;102918.41;4994706;28;46234;-55
2022/01/17 03:15:06;;;;;;;;;9.00;9.00;;;;;19.92;33.77;102921.94;4977482;28;45228;-54
2022/01/17 03:17:31;;;;;;;;;9.25;9.25;;;;;19.91;33.82;102936.88;4995035;28;45285;-53
2022/01/17 03:19:56;;;;;;;;;9.50;9.50;;;;;19.92;34.09;102930.72;4995236;28;45636;-50
2022/01/17 03:22:21;;;;;;;;;11.25;10.00;;;;;19.91;33.83;102933.34;4994801;28;46966;-49
2022/01/17 03:24:47;;;;;;;;;9.00;8.50;;;;;19.89;33.68;102937.81;4995098;28;45307;-50
2022/01/17 03:27:12;;;;;;;;;11.00;9.75;;;;;19.89;33.91;102936.03;4994953;28;45353;-51
2022/01/17 03:29:38;;;;;;;;;9.25;9.25;;;;;19.87;34.17;102942.22;4995074;28;45331;-54
2022/01/17 03:32:03;;;;;;;;;10.25;9.50;;;;;19.88;34.04;102943.97;4994724;28;45315;-54
2022/01/17 03:34:28;;;;;;;;;11.00;9.00;;;;;19.86;34.08;102943.13;4977045;28;45363;-54
2022/01/17 03:36:54;;;;;;;;;11.50;9.75;;;;;19.86;34.00;102945.75;4994882;28;45345;-53
2022/01/17 03:39:19;;;;;;;;;13.25;11.75;;;;;19.85;33.95;102952.72;4995345;28;45462;-49
2022/01/17 03:41:45;;;;;;;;;11.50;9.75;;;;;19.85;33.97;102954.50;4994317;27;45454;-53
2022/01/17 03:44:10;;;;;;;;;8.75;8.75;;;;;19.84;34.41;102956.28;4994516;28;45461;-52
2022/01/17 03:46:35;;;;;;;;;9.75;9.75;;;;;19.82;34.47;102938.75;4994741;28;45552;-48
2022/01/17 03:49:01;;;;;;;;;9.75;9.75;;;;;19.84;34.56;102955.41;4994657;27;45673;-55
2022/01/17 03:51:26;;;;;;;;;11.25;11.25;;;;;19.80;34.03;102948.44;4976996;28;47504;-58
2022/01/17 03:53:52;;;;;;;;;9.75;8.00;;;;;19.83;34.42;102956.28;4994606;28;45381;-51
2022/01/17 03:56:18;;;;;;;;;8.25;8.25;;;;;19.79;34.35;102960.75;4994840;28;45350;-47
2022/01/17 03:58:45;;;;;;;;;9.25;8.75;;;;;19.79;34.44;102968.66;4994726;27;45276;-51
2022/01/17 04:01:10;;;;;;;;;10.50;8.50;;;;;19.75;34.54;102959.94;4994382;28;47420;-52
2022/01/17 04:03:36;;;;;;;;;10.25;9.25;;;;;19.76;34.49;102966.94;4994308;28;45352;-52
2022/01/17 04:06:01;;;;;;;;;11.00;10.00;;;;;19.76;34.34;102972.22;4994486;28;45776;-50
2022/01/17 04:08:27;;;;;;;;;13.00;9.50;;;;;19.76;34.70;102974.84;4977120;28;45585;-52
2022/01/17 04:10:52;;;;;;;;;10.75;10.75;;;;;19.74;34.26;102979.25;4994164;27;45341;-52
2022/01/17 04:13:18;;;;;;;;;9.25;9.25;;;;;19.74;34.31;102984.50;4994119;28;45296;-57
2022/01/17 04:15:44;;;;;;;;;9.00;9.00;;;;;19.72;34.52;102965.25;4994770;28;45337;-52
2022/01/17 04:18:10;;;;;;;;;9.50;7.50;;;;;19.72;34.54;102975.78;4977029;28;45651;-54
2022/01/17 04:20:38;;;;;;;;;10.75;9.25;;;;;19.71;34.38;102974.03;4976493;28;47345;-53
2022/01/17 04:23:06;;;;;;;;;10.00;10.00;;;;;19.72;34.19;102978.41;4994359;28;45942;-54
2022/01/17 04:25:34;;;;;;;;;12.25;9.75;;;;;19.71;34.54;102991.59;4994197;28;45431;-57
2022/01/17 04:28:00;;;;;;;;;9.50;9.00;;;;;19.69;34.54;102990.75;4994541;27;45445;-57
2022/01/17 04:30:28;;;;;;;;;10.50;8.00;;;;;19.70;34.60;102992.50;4994053;28;46362;-56
2022/01/17 04:32:54;;;;;;;;;9.50;9.50;;;;;19.69;34.23;102985.50;4994435;28;45685;-56
2022/01/17 04:35:20;;;;;;;;;11.25;11.00;;;;;19.68;34.27;102984.59;4994662;28;45274;-58
2022/01/17 04:37:48;;;;;;;;;7.00;7.00;;;;;19.67;34.31;102980.28;4994220;28;45323;-55
2022/01/17 04:40:14;;;;;;;;;10.00;10.00;;;;;19.66;34.41;102981.16;4994009;27;45505;-58
2022/01/17 04:42:44;;;;;;;;;10.25;10.25;;;;;19.68;34.33;102984.59;4993801;28;45385;-55
2022/01/17 04:45:11;;;;;;;;;10.75;9.75;;;;;19.66;34.35;102975.91;4994160;28;45454;-54
2022/01/17 04:47:38;;;;;;;;;10.00;9.25;;;;;19.65;34.41;102974.16;4994091;28;45511;-57
2022/01/17 04:50:09;;;;;;;;;10.00;9.50;;;;;19.63;34.84;102976.78;4993683;27;46203;-58
2022/01/17 04:52:36;;;;;;;;;10.75;10.25;;;;;19.64;34.28;102988.22;4993681;28;45377;-59
2022/01/17 04:55:06;;;;;;;;;10.00;8.75;;;;;19.64;34.75;102982.94;4993806;28;45344;-57
2022/01/17 04:57:32;;;;;;;;;11.50;8.00;;;;;19.64;34.73;102985.56;4993871;28;45446;-56
2022/01/17 04:59:58;;;;;;;;;11.25;10.50;;;;;19.62;34.51;102992.63;4993543;28;46138;-58
2022/01/17 05:02:24;;;;;;;;;9.75;9.25;;;;;19.62;34.39;102990.00;4993869;28;45261;-55
2022/01/17 05:04:49;;;;;;;;;7.75;7.75;;;;;19.61;34.73;102990.88;4993743;28;45387;-59
2022/01/17 05:07:14;;;;;;;;;8.75;8.75;;;;;19.61;34.34;102994.41;4993779;28;45385;-57
2022/01/17 05:09:42;;;;;;;;;12.75;8.50;;;;;19.61;34.34;102983.88;4993349;28;45360;-59
2022/01/17 05:12:10;;;;;;;;;8.25;8.00;;;;;19.60;34.57;102981.25;4993349;28;45966;-58
2022/01/17 05:14:39;;;;;;;;;9.75;6.00;;;;;19.56;34.48;102980.44;4993482;28;45469;-57
2022/01/17 05:17:22;;;;;;;;;9.00;7.50;;;;;19.60;34.65;102989.16;4993720;28;45216;-57
2022/01/17 05:19:48;;;;;;;;;8.75;7.75;;;;;19.59;34.75;103000.56;4993073;28;46496;-56
2022/01/17 05:22:16;;;;;;;;;9.50;8.50;;;;;19.58;34.54;102999.69;4993268;28;45274;-58
2022/01/17 05:24:41;;;;;;;;;11.75;7.25;;;;;19.58;34.42;103004.97;4993432;28;45380;-54
2022/01/17 05:27:06;;;;;;;;;8.00;7.00;;;;;19.56;34.34;103003.25;4996232;28;45656;-52
2022/01/17 05:29:32;;;;;;;;;9.00;8.00;;;;;19.57;34.69;103007.59;4996258;27;45486;-57
2022/01/17 05:31:57;;;;;;;;;9.25;8.00;;;;;19.55;34.61;103005.00;4996162;27;45517;-55
2022/01/17 05:34:22;;;;;;;;;7.00;5.75;;;;;19.55;34.46;102999.75;4996569;28;45304;-57
2022/01/17 05:36:48;;;;;;;;;7.00;5.75;;;;;19.54;34.35;102998.00;4996544;28;45346;-55
2022/01/17 05:39:14;;;;;;;;;6.75;6.50;;;;;19.55;34.66;103007.63;4996015;27;46053;-55
2022/01/17 05:41:39;;;;;;;;;7.50;5.00;;;;;19.55;34.61;103012.03;4996112;28;45441;-53
2022/01/17 05:44:05;;;;;;;;;8.25;6.00;;;;;19.54;34.36;103003.25;4996097;28;45392;-57
2022/01/17 05:46:30;;;;;;;;;7.50;7.50;;;;;19.53;34.88;103004.16;4996337;28;45363;-55
2022/01/17 05:48:55;;;;;;;;;8.00;7.00;;;;;19.52;34.67;103012.94;4996281;27;45399;-58
2022/01/17 05:51:21;;;;;;;;;6.25;6.25;;;;;19.53;34.64;103011.19;4996022;28;45423;-53
2022/01/17 05:53:46;;;;;;;;;7.25;6.25;;;;;19.51;34.65;103008.59;4996173;28;45338;-54
2022/01/17 05:56:11;;;;;;;;;8.25;6.25;;;;;19.52;34.67;103027.88;4996264;27;45379;-55
2022/01/17 05:58:37;;;;;;;;;7.25;7.25;;;;;19.52;34.41;103025.22;4995757;27;45324;-57
2022/01/17 06:01:02;;;;;;;;;10.75;7.00;;;;;19.52;34.75;103030.50;4995740;27;45231;-57
2022/01/17 06:03:28;;;;;;;;;5.00;5.00;;;;;19.49;34.65;103020.91;4996410;28;45263;-53
2022/01/17 06:05:53;;;;;;;;;7.75;7.75;;;;;19.47;34.71;103018.28;4996386;27;45394;-57
2022/01/17 06:08:19;;;;;;;;;7.50;6.00;;;;;19.50;34.91;103022.63;4995647;28;45792;-55
2022/01/17 06:10:44;;;;;;;;;6.25;6.25;;;;;19.50;35.02;103014.75;4977809;28;45831;-56
2022/01/17 06:13:10;;;;;;;;;8.00;5.00;;;;;19.55;34.73;103015.53;4978180;28;45337;-53
2022/01/17 06:15:35;;;;;;;;;6.00;4.50;;;;;19.60;34.98;103023.34;4995876;28;45525;-56
2022/01/17 06:18:00;;;;;;;;;7.25;7.25;;;;;19.63;34.88;103018.88;4995439;28;46318;-56
2022/01/17 06:20:27;;;;;;;;;9.50;6.50;;;;;19.68;34.57;103023.22;4995932;28;45227;-55
2022/01/17 06:22:52;;;;;;;;;8.75;6.25;;;;;19.73;34.67;103022.25;4995686;27;45408;-58
2022/01/17 06:25:17;;;;;;;;;9.25;7.00;;;;;19.77;34.86;103023.06;4995937;27;45598;-58
2022/01/17 06:27:43;;;;;;;;;9.25;5.75;;;;;19.83;34.66;103020.34;4995464;28;46337;-57
2022/01/17 06:30:08;;;;;;;;;8.50;7.25;;;;;19.88;34.64;103028.19;4977829;28;45266;-54
2022/01/17 06:32:34;;;;;;;;;8.25;6.75;;;;;19.92;34.53;103036.00;4977830;28;45331;-58
2022/01/17 06:35:03;;;;;;;;;8.50;5.25;;;;;19.96;34.34;103042.06;4995740;27;45394;-55
2022/01/17 06:37:29;;;;;;;;;7.00;6.75;;;;;20.00;34.22;103051.66;4977576;28;46872;-55
2022/01/17 06:39:55;;;;;;;;;9.00;6.75;;;;;20.03;34.09;103054.19;4995704;28;45726;-57
2022/01/17 06:42:21;;;;;;;;;7.00;4.75;;;;;20.05;34.50;103062.09;4995434;28;45244;-57
2022/01/17 06:44:47;;;;;;;;;4.75;4.75;;;;;20.07;34.29;103060.28;4995568;27;45347;-56
2022/01/17 06:47:13;;;;;;;;;5.50;5.50;;;;;20.09;34.12;103069.03;4995139;28;45359;-58
2022/01/17 06:49:38;;;;;;;;;8.00;7.00;;;;;20.11;34.64;103087.44;4995184;27;45327;-57
2022/01/17 06:52:04;;;;;;;;;8.25;6.75;;;;;20.10;34.06;103088.34;4995398;27;45327;-55
2022/01/17 06:54:29;;;;;;;;;8.75;6.00;;;;;20.10;34.50;103091.81;4995770;27;45378;-54
2022/01/17 06:56:54;;;;;;;;;6.50;5.00;;;;;20.14;34.34;103082.09;4995059;27;45436;-58
2022/01/17 06:59:20;;;;;;;;;8.75;7.50;;;;;20.15;34.03;103073.31;4995087;27;45389;-60
2022/01/17 07:01:45;;;;;;;;;6.00;5.25;;;;;20.15;34.13;103070.69;4995380;28;45328;-56
2022/01/17 07:04:11;;;;;;;;;7.00;5.00;;;;;20.16;33.84;103075.03;4995503;28;45537;-58
2022/01/17 07:06:40;;;;;;;;;4.50;4.50;;;;;20.16;34.28;103080.31;4994813;28;45561;-58
2022/01/17 07:09:08;;;;;;;;;5.00;5.00;;;;;20.15;34.27;103079.47;4994808;27;45233;-54
2022/01/17 07:11:38;;;;;;;;;5.50;5.50;;;;;20.15;34.34;103079.47;4995330;28;45322;-58
2022/01/17 07:14:06;;;;;;;;;5.00;5.00;;;;;20.16;34.10;103102.25;4977581;28;45563;-55
2022/01/17 07:16:31;;;;;;;;;5.00;5.00;;;;;20.17;33.76;103118.91;4994810;28;45343;-57
2022/01/17 07:18:56;;;;;;;;;6.50;4.75;;;;;20.17;33.79;103124.19;4977468;28;46105;-56
2022/01/17 07:21:22;;;;;;;;;6.00;6.00;;;;;20.16;33.81;103144.38;4995159;27;45382;-57
2022/01/17 07:23:47;;;;;;;;;5.25;5.00;;;;;20.15;33.83;103141.75;4995017;28;45331;-58
2022/01/17 07:26:12;;;;;;;;;8.75;7.00;;;;;20.15;34.17;103152.28;4994680;27;46262;-58
2022/01/17 07:28:38;;;;;;;;;4.75;4.75;;;;;20.15;34.29;103152.28;4994782;27;45346;-58
2022/01/17 07:31:03;;;;;;;;;6.75;5.50;;;;;20.14;34.15;103134.75;4977381;28;45802;-57
2022/01/17 07:33:30;;;;;;;;;6.50;6.00;;;;;20.15;34.14;103128.59;4995369;28;45322;-57
2022/01/17 07:35:56;;;;;;;;;6.75;5.00;;;;;20.14;33.80;103117.22;4994486;28;46197;-58
2022/01/17 07:38:21;;;;;;;;;6.50;5.50;;;;;20.13;33.70;103114.59;4994684;28;45290;-58
2022/01/17 07:40:46;;;;;;;;;8.50;6.75;;;;;20.14;34.23;103129.50;4994674;28;45291;-58
2022/01/17 07:43:12;;;;;;;;;9.00;7.00;;;;;20.10;33.97;103117.28;4994719;27;45316;-56
2022/01/17 07:45:46;;;;;;;;;6.75;6.00;;;;;20.11;34.38;103119.03;4994483;28;46542;-56
2022/01/17 07:48:34;;;;;;;;;6.50;6.50;;;;;20.10;34.13;103117.28;4993383;28;45395;-58
2022/01/17 07:50:56;;;;;;;;;7.50;6.00;;;;;20.07;33.89;103112.94;4994552;28;45417;-53
2022/01/17 07:53:22;;;;;;;;;6.25;6.25;;;;;20.09;33.98;103126.94;4994649;28;45243;-57
2022/01/17 07:55:48;;;;;;;;;6.75;6.00;;;;;20.07;34.14;103137.50;4994404;27;46312;-57
2022/01/17 07:58:13;;;;;;;;;7.75;6.50;;;;;20.06;34.23;103132.28;4994409;28;45876;-57
2022/01/17 08:00:39;;;;;;;;;9.75;7.00;;;;;20.07;33.98;103141.88;4994582;28;45340;-53
2022/01/17 08:03:06;;;;;;;;;6.75;6.00;;;;;20.06;34.37;103148.94;4994585;27;45335;-55
2022/01/17 08:05:32;;;;;;;;;8.00;5.50;;;;;20.05;34.29;103147.19;4977410;28;46315;-58
2022/01/17 08:07:58;;;;;;;;;6.00;6.00;;;;;20.03;34.48;103146.34;4994286;27;45397;-58
2022/01/17 08:10:23;;;;;;;;;5.00;5.00;;;;;20.04;34.41;103140.19;4976703;28;45459;-59
2022/01/17 08:12:48;;;;;;;;;6.00;5.75;;;;;20.03;34.34;103148.13;4994497;27;45481;-57
2022/01/17 08:15:15;;;;;;;;;8.75;5.75;;;;;20.02;34.08;103149.84;4994008;28;45987;-58
2022/01/17 08:17:40;;;;;;;;;5.75;4.50;;;;;20.00;34.04;103146.41;4993994;27;45895;-58
2022/01/17 08:20:07;;;;;;;;;7.00;7.00;;;;;20.00;34.36;103146.41;4994466;27;45336;-54
2022/01/17 08:22:32;;;;;;;;;7.00;5.75;;;;;19.99;33.97;103156.94;4994748;28;45515;-53
2022/01/17 08:24:58;;;;;;;;;5.75;5.00;;;;;19.98;34.29;103165.72;4993903;28;45366;-56
2022/01/17 08:27:23;;;;;;;;;7.25;7.00;;;;;19.97;34.05;103170.16;4994061;28;45359;-54
2022/01/17 08:29:48;;;;;;;;;8.50;6.75;;;;;19.96;33.90;103159.63;4994024;27;45182;-53
2022/01/17 08:32:14;;;;;;;;;5.50;5.50;;;;;19.94;34.42;103151.75;4976569;28;45514;-58
2022/01/17 08:34:39;;;;;;;;;9.00;7.00;;;;;19.95;34.09;103155.28;4993792;28;46117;-58
2022/01/17 08:37:05;;;;;;;;;5.25;5.25;;;;;19.93;34.31;103163.19;4994273;28;45350;-55
2022/01/17 08:39:31;;;;;;;;;6.25;6.00;;;;;19.93;34.16;103157.91;4993909;28;45297;-56
2022/01/17 08:41:56;;;;;;;;;6.00;6.00;;;;;19.92;34.06;103166.69;4994147;28;45654;-56
2022/01/17 08:44:23;;;;;;;;;4.50;4.50;;;;;19.91;34.07;103173.75;4993719;28;46558;-57
2022/01/17 08:46:48;;;;;;;;;7.00;7.00;;;;;19.91;34.63;103181.63;4993708;28;45874;-53
2022/01/17 08:49:14;;;;;;;;;6.75;6.50;;;;;19.89;34.11;103175.53;4993877;28;45368;-55
2022/01/17 08:51:39;;;;;;;;;7.75;7.75;;;;;19.88;34.35;103175.56;4976454;28;45689;-54
2022/01/17 08:54:06;;;;;;;;;8.50;7.00;;;;;19.88;33.98;103170.28;4993752;28;45379;-56
2022/01/17 08:56:32;;;;;;;;;5.50;5.50;;;;;19.86;34.07;103172.06;4994067;28;45382;-57
2022/01/17 08:59:01;;;;;;;;;7.00;7.00;;;;;19.87;34.53;103171.19;4993621;28;45320;-53
2022/01/17 09:01:27;;;;;;;;;6.50;6.50;;;;;19.85;34.39;103178.19;4994060;28;45449;-56
2022/01/17 09:03:53;;;;;;;;;7.00;6.00;;;;;19.85;34.66;103191.34;4993540;27;45300;-55
2022/01/17 09:06:19;;;;;;;;;6.00;6.00;;;;;19.85;34.50;103183.44;4993409;28;45484;-57
2022/01/17 09:08:44;;;;;;;;;8.50;8.25;;;;;19.85;34.40;103180.81;4993368;27;45403;-58
2022/01/17 09:11:10;;;;;;;;;8.25;6.00;;;;;19.84;34.66;103192.25;4993684;28;45397;-58
2022/01/17 09:13:36;;;;;;;;;5.50;5.50;;;;;19.83;34.29;103187.88;4993570;28;46432;-54
2022/01/17 09:16:01;;;;;;;;;5.25;5.25;;;;;19.83;34.31;103191.38;4959515;28;45416;-55
2022/01/17 09:18:27;;;;;;;;;6.50;6.25;;;;;19.83;34.38;103203.66;4975914;28;45925;-52
2022/01/17 09:20:53;;;;;;;;;6.00;6.00;;;;;19.82;34.34;103207.19;4992196;28;45536;-53
2022/01/17 09:23:18;;;;;;;;;10.00;6.25;;;;;19.81;34.54;103211.59;4993122;28;46324;-52
2022/01/17 09:25:44;;;;;;;;;8.00;8.00;;;;;19.80;34.43;103225.63;4993050;28;45375;-55
2022/01/17 09:28:10;;;;;;;;;7.50;6.75;;;;;19.81;34.67;103221.22;4993319;28;45339;-53
2022/01/17 09:30:36;;;;;;;;;7.00;6.50;;;;;19.78;34.62;103244.09;4993758;28;45535;-50
2022/01/17 09:33:03;;;;;;;;;4.75;4.75;;;;;19.78;34.33;103249.34;4992964;28;46111;-53
2022/01/17 09:35:29;;;;;;;;;6.75;6.75;;;;;19.77;34.34;103251.97;4993028;28;45484;-56
2022/01/17 09:37:54;;;;;;;;;7.00;6.75;;;;;19.78;34.19;103261.63;4993059;28;45530;-54
2022/01/17 09:40:20;;;;;;;;;8.00;8.00;;;;;19.77;34.69;103260.75;4993326;28;45551;-59
2022/01/17 09:42:46;;;;;;;;;6.75;6.75;;;;;19.76;34.65;103256.38;4992793;28;46306;-56
2022/01/17 09:45:18;;;;;;;;;9.75;8.00;;;;;19.75;34.08;103252.00;4975242;28;45492;-57
2022/01/17 09:47:44;;;;;;;;;6.00;6.00;;;;;19.75;34.40;103241.47;4993075;28;45903;-56
2022/01/17 09:50:14;;;;;;;;;8.00;7.00;;;;;19.74;34.44;103239.75;4993195;27;45421;-56
2022/01/17 09:52:45;;;;;;;;;7.50;7.50;;;;;19.75;34.70;103237.97;4992986;28;45713;-52
2022/01/17 09:55:21;;;;;;;;;8.00;7.25;;;;;19.73;34.68;103245.91;4992880;28;45837;-56
2022/01/17 09:58:14;;;;;;;;;8.25;8.25;;;;;19.73;34.92;103256.41;4992834;28;45410;-58
2022/01/17 10:00:43;;;;;;;;;8.25;7.75;;;;;19.71;34.61;103263.47;4992763;28;45466;-53
2022/01/17 10:03:12;;;;;;;;;7.00;7.00;;;;;19.72;34.38;103264.34;4992800;28;46470;-50
2022/01/17 10:05:38;;;;;;;;;9.00;8.00;;;;;19.71;34.59;103279.25;4975451;28;45470;-53
2022/01/17 10:08:08;;;;;;;;;7.00;7.00;;;;;19.71;34.67;103287.13;4992592;28;45399;-59
2022/01/17 10:10:36;;;;;;;;;8.00;8.00;;;;;19.70;34.65;103288.03;4992729;28;45579;-58
2022/01/17 10:13:06;;;;;;;;;11.00;8.00;;;;;19.70;34.19;103297.69;4995246;28;45698;-50
2022/01/17 10:15:44;;;;;;;;;10.75;9.75;;;;;19.69;34.23;103291.53;4995753;28;45429;-48
2022/01/17 10:18:30;;;;;;;;;8.75;7.25;;;;;19.69;34.37;103281.00;4996112;28;45302;-54
2022/01/17 10:21:02;;;;;;;;;15.50;9.50;;;;;19.67;34.42;103293.34;4995949;28;45581;-51
2022/01/17 10:24:02;;;;;;;;;8.50;7.75;;;;;19.68;34.44;103287.16;4995482;28;46408;-54
2022/01/17 10:34:52;;;;;;;;;8.50;7.50;;;;;19.65;34.49;103284.59;4995773;28;45629;-57
2022/01/17 10:36:52;;;;;;;;;11.25;11.25;;;;;19.62;34.70;103289.88;5027428;27;46261;-54
2022/01/17 10:39:18;;;;;;;;;10.50;9.50;;;;;19.60;34.81;103291.66;5076899;27;45184;-57
2022/01/17 10:41:43;;;;;;;;;9.25;9.25;;;;;19.61;34.89;103304.81;4995348;28;45292;-57
2022/01/17 10:44:09;;;;;;;;;10.00;10.00;;;;;19.58;34.82;103312.72;4994624;28;46528;-53
2022/01/17 10:46:35;;;;;;;;;8.00;8.00;;;;;19.56;34.68;103306.63;4994284;28;45248;-53
2022/01/17 10:49:03;;;;;;;;;11.25;9.75;;;;;19.56;35.15;103296.09;4993770;27;45453;-57
2022/01/17 10:51:33;;;;;;;;;8.00;7.00;;;;;19.56;34.81;103295.25;4994046;28;45399;-58
2022/01/17 10:54:13;;;;;;;;;9.50;8.75;;;;;19.55;34.96;103298.75;4992448;28;46488;-54
2022/01/17 10:56:56;;;;;;;;;8.25;7.75;;;;;19.55;34.63;103280.34;4977313;28;46040;-53
2022/01/17 10:59:27;;;;;;;;;7.25;7.25;;;;;19.54;35.18;103275.97;4994069;28;45416;-47
2022/01/17 11:01:55;;;;;;;;;9.00;7.25;;;;;19.53;34.85;103263.69;4995610;28;45776;-51
2022/01/17 11:04:39;;;;;;;;;10.50;10.50;;;;;19.53;35.18;103243.50;4994915;28;46343;-55
2022/01/17 11:07:07;;;;;;;;;10.00;8.50;;;;;19.53;34.66;103237.41;4994937;27;45300;-54
2022/01/17 11:09:40;;;;;;;;;9.75;9.00;;;;;19.53;34.89;103246.16;4994948;27;45477;-51
2022/01/17 11:12:15;;;;;;;;;9.00;8.00;;;;;19.52;34.61;103241.78;4995179;27;45244;-51
2022/01/17 11:14:43;;;;;;;;;10.00;8.75;;;;;19.52;34.98;103240.91;4995152;27;46847;-51
2022/01/17 11:17:33;;;;;;;;;9.50;8.25;;;;;19.53;34.61;103245.28;4995239;27;45426;-47
2022/01/17 11:20:04;;;;;;;;;12.00;9.00;;;;;19.52;34.91;103238.28;4994932;28;45171;-48
2022/01/17 11:22:31;;;;;;;;;12.25;8.75;;;;;19.49;34.95;103235.69;4994272;28;45305;-48
2022/01/17 11:24:58;;;;;;;;;10.00;9.50;;;;;19.53;35.13;103240.03;4994262;28;46212;-48
2022/01/17 11:27:23;;;;;;;;;11.75;9.75;;;;;19.51;34.87;103247.94;4994807;28;45227;-50
2022/01/17 11:29:50;;;;;;;;;8.50;6.25;;;;;19.52;35.11;103246.19;4994892;28;45255;-49
2022/01/17 11:32:16;;;;;;;;;10.00;8.25;;;;;19.51;35.03;103240.06;4995024;27;45531;-50
2022/01/17 11:34:42;;;;;;;;;9.25;8.75;;;;;19.52;34.87;103235.66;4977121;28;45364;-48
2022/01/17 11:37:09;;;;;;;;;10.00;9.50;;;;;19.52;34.97;103233.03;4994613;28;45448;-51
2022/01/17 11:39:44;;;;;;;;;10.25;8.75;;;;;19.51;35.07;103224.28;4994734;28;45397;-54
2022/01/17 11:42:31;;;;;;;;;10.25;9.25;;;;;19.52;35.03;103227.75;4995350;28;45345;-52
2022/01/17 11:44:56;;;;;;;;;7.75;7.75;;;;;19.52;34.69;103219.88;4994318;28;46549;-50
2022/01/17 11:47:55;;;;;;;;;12.00;10.50;;;;;19.50;35.11;103233.06;4994408;27;45449;-49
2022/01/17 11:50:27;;;;;;;;;10.25;8.25;;;;;19.51;34.76;103234.81;4994141;28;45248;-52